createdAt,value
2023-03-16T00:00:51.337Z,84.50
2023-03-16T00:03:18.893Z,83.92
2023-03-16T00:05:48.827Z,84.43
2023-03-16T00:08:17.122Z,83.86
2023-03-16T00:10:44.484Z,83.80
2023-03-16T00:13:11.346Z,83.20
2023-03-16T00:15:38.152Z,82.89
2023-03-16T00:18:05.060Z,82.65
2023-03-16T00:20:31.998Z,82.43
2023-03-16T00:23:00.181Z,83.48
2023-03-16T00:25:26.959Z,84.80
2023-03-16T00:27:53.797Z,86.10
2023-03-16T00:30:20.822Z,87.35
2023-03-16T00:32:47.903Z,88.85
2023-03-16T00:35:17.729Z,89.25
2023-03-16T00:37:44.566Z,89.71
2023-03-16T00:40:13.512Z,89.73
2023-03-16T00:42:40.292Z,88.84
2023-03-16T00:45:09.535Z,87.87
2023-03-16T00:47:36.384Z,86.67
2023-03-16T00:50:03.520Z,85.76
2023-03-16T00:52:30.712Z,85.05
2023-03-16T00:54:58.947Z,84.63
2023-03-16T00:57:29.413Z,84.36
2023-03-16T00:59:56.441Z,83.77
2023-03-16T01:02:23.394Z,83.91
2023-03-16T01:04:51.257Z,83.73
2023-03-16T01:07:19.155Z,83.38
2023-03-16T01:09:47.523Z,83.40
2023-03-16T01:12:18.268Z,82.60
2023-03-16T01:14:47.577Z,82.86
2023-03-16T01:17:17.259Z,83.20
2023-03-16T01:19:45.118Z,83.48
2023-03-16T01:22:12.700Z,83.77
2023-03-16T01:24:40.981Z,83.66
2023-03-16T01:27:09.060Z,84.46
2023-03-16T01:29:36.891Z,84.87
2023-03-16T01:32:06.529Z,85.00
2023-03-16T01:34:34.476Z,85.02
2023-03-16T01:37:01.646Z,85.99
2023-03-16T01:39:40.315Z,86.69
2023-03-16T01:42:08.780Z,87.48
2023-03-16T01:44:55.400Z,87.31
2023-03-16T01:47:26.822Z,87.49
2023-03-16T01:49:57.540Z,87.29
2023-03-16T01:52:33.651Z,86.92
2023-03-16T01:55:05.808Z,86.94
2023-03-16T01:57:38.844Z,87.29
2023-03-16T02:00:10.079Z,86.54
2023-03-16T02:02:56.346Z,86.36
2023-03-16T02:05:38.684Z,86.81
2023-03-16T02:08:09.796Z,86.38
2023-03-16T02:10:38.716Z,86.17
2023-03-16T02:13:06.358Z,87.59
2023-03-16T02:15:33.555Z,86.61
2023-03-16T02:18:02.470Z,86.01
2023-03-16T02:20:42.306Z,86.32
2023-03-16T02:23:13.744Z,86.03
2023-03-16T02:25:55.206Z,85.34
2023-03-16T02:28:32.138Z,86.06
2023-03-16T02:31:00.638Z,85.39
2023-03-16T02:33:32.401Z,85.88
2023-03-16T02:35:59.560Z,85.94
2023-03-16T02:38:28.022Z,86.21
2023-03-16T02:41:01.302Z,86.31
2023-03-16T02:43:34.751Z,86.33
2023-03-16T02:46:15.596Z,86.33
2023-03-16T02:48:49.480Z,87.29
2023-03-16T02:51:16.327Z,88.30
2023-03-16T02:53:43.197Z,88.33
2023-03-16T02:56:10.316Z,88.32
2023-03-16T02:58:37.502Z,87.87
2023-03-16T03:01:09.681Z,87.96
2023-03-16T03:03:38.212Z,88.04
2023-03-16T03:06:05.659Z,88.34
2023-03-16T03:08:35.936Z,88.56
2023-03-16T03:11:03.234Z,88.91
2023-03-16T03:13:30.068Z,88.74
2023-03-16T03:15:56.980Z,88.43
2023-03-16T03:18:26.283Z,87.77
2023-03-16T03:20:54.688Z,87.94
2023-03-16T03:23:21.618Z,88.23
2023-03-16T03:25:48.582Z,87.59
2023-03-16T03:28:17.228Z,87.41
2023-03-16T03:30:45.144Z,87.57
2023-03-16T03:33:12.019Z,90.08
2023-03-16T03:35:38.922Z,90.33
2023-03-16T03:38:07.294Z,90.23
2023-03-16T03:40:35.015Z,89.91
2023-03-16T03:43:03.716Z,90.55
2023-03-16T03:45:33.407Z,90.34
2023-03-16T03:48:00.511Z,88.62
2023-03-16T03:50:27.704Z,90.37
2023-03-16T03:53:20.265Z,91.16
2023-03-16T03:56:12.538Z,92.14
2023-03-16T03:58:39.644Z,92.69
2023-03-16T04:01:06.597Z,93.22
2023-03-16T04:03:34.161Z,92.99
2023-03-16T04:06:02.112Z,92.09
2023-03-16T04:08:31.525Z,91.40
2023-03-16T04:10:58.864Z,90.83
2023-03-16T04:13:25.702Z,90.00
2023-03-16T04:15:57.331Z,89.18
2023-03-16T04:18:27.410Z,88.44
2023-03-16T04:20:54.441Z,88.66
2023-03-16T04:23:23.463Z,88.93
2023-03-16T04:25:52.024Z,88.19
2023-03-16T04:28:20.927Z,87.75
2023-03-16T04:30:52.543Z,87.44
2023-03-16T04:33:25.673Z,87.46
2023-03-16T04:35:52.623Z,87.45
2023-03-16T04:38:21.751Z,87.87
2023-03-16T04:40:57.384Z,87.62
2023-03-16T04:43:30.039Z,86.73
2023-03-16T04:46:04.633Z,87.22
2023-03-16T04:48:32.036Z,87.07
2023-03-16T04:50:59.260Z,87.28
2023-03-16T04:53:29.387Z,86.73
2023-03-16T04:56:02.169Z,87.25
2023-03-16T04:58:30.360Z,87.21
2023-03-16T05:00:59.022Z,87.02
2023-03-16T05:03:29.389Z,86.76
2023-03-16T05:05:56.365Z,86.76
2023-03-16T05:08:25.088Z,86.75
2023-03-16T05:10:57.366Z,85.59
2023-03-16T05:13:26.244Z,86.47
2023-03-16T05:15:54.723Z,86.38
2023-03-16T05:18:27.151Z,86.66
2023-03-16T05:20:56.549Z,86.28
2023-03-16T05:23:27.737Z,85.78
2023-03-16T05:25:59.864Z,85.35
2023-03-16T05:28:29.604Z,85.17
2023-03-16T05:31:08.634Z,85.46
2023-03-16T05:33:39.850Z,85.04
2023-03-16T05:36:10.588Z,84.82
2023-03-16T05:38:39.623Z,84.79
2023-03-16T05:41:09.491Z,85.11
2023-03-16T05:43:49.520Z,84.88
2023-03-16T05:46:19.656Z,85.22
2023-03-16T05:48:49.385Z,84.72
2023-03-16T05:51:18.564Z,84.90
2023-03-16T05:53:45.837Z,85.30
2023-03-16T05:56:21.298Z,84.84
2023-03-16T05:58:50.223Z,84.64
2023-03-16T06:01:17.274Z,84.91
2023-03-16T06:03:44.220Z,85.18
2023-03-16T06:06:17.821Z,85.54
2023-03-16T06:08:54.829Z,85.37
2023-03-16T06:11:45.809Z,84.83
2023-03-16T06:14:16.746Z,84.56
2023-03-16T06:16:44.645Z,84.06
2023-03-16T06:19:12.202Z,83.83
2023-03-16T06:21:39.419Z,84.49
2023-03-16T06:24:10.705Z,84.69
2023-03-16T06:26:37.924Z,84.85
2023-03-16T06:29:07.709Z,86.61
2023-03-16T06:31:38.485Z,86.32
2023-03-16T06:34:06.267Z,86.57
2023-03-16T06:36:33.794Z,87.70
2023-03-16T06:39:02.897Z,87.58
2023-03-16T06:41:41.902Z,85.69
2023-03-16T06:44:10.209Z,87.12
2023-03-16T06:46:42.653Z,84.92
2023-03-16T06:49:09.641Z,84.11
2023-03-16T06:51:36.887Z,83.32
2023-03-16T06:54:04.201Z,82.13
2023-03-16T06:56:32.093Z,81.22
2023-03-16T06:58:59.046Z,80.99
2023-03-16T07:01:26.893Z,79.31
2023-03-16T07:03:55.323Z,78.92
2023-03-16T07:06:27.642Z,77.65
2023-03-16T07:08:55.219Z,76.77
2023-03-16T07:11:22.779Z,75.89
2023-03-16T07:13:49.733Z,74.70
2023-03-16T07:16:18.704Z,73.56
2023-03-16T07:18:45.549Z,72.55
2023-03-16T07:21:16.614Z,71.77
2023-03-16T07:23:44.998Z,70.58
2023-03-16T07:26:14.127Z,68.23
2023-03-16T07:28:50.936Z,67.07
2023-03-16T07:31:18.233Z,65.54
2023-03-16T07:33:46.155Z,62.31
2023-03-16T07:36:19.870Z,59.31
2023-03-16T07:38:53.385Z,60.47
2023-03-16T07:41:20.271Z,60.09
2023-03-16T07:43:47.341Z,59.33
2023-03-16T07:46:15.497Z,60.20
2023-03-16T07:48:45.168Z,58.94
2023-03-16T07:51:13.858Z,55.88
2023-03-16T07:53:43.350Z,55.74
2023-03-16T07:56:20.972Z,54.84
2023-03-16T07:58:52.021Z,54.42
2023-03-16T08:01:18.982Z,53.46
2023-03-16T08:03:45.931Z,52.41
2023-03-16T08:06:13.068Z,51.06
2023-03-16T08:08:39.864Z,49.80
2023-03-16T08:11:08.835Z,48.30
2023-03-16T08:13:45.270Z,46.90
2023-03-16T08:16:12.645Z,44.43
2023-03-16T08:18:42.408Z,44.65
2023-03-16T08:21:09.876Z,42.69
2023-03-16T08:23:36.976Z,41.91
2023-03-16T08:26:05.395Z,40.77
2023-03-16T08:28:34.853Z,39.83
2023-03-16T08:31:07.815Z,38.96
2023-03-16T08:33:50.812Z,38.38
2023-03-16T08:36:21.740Z,38.89
2023-03-16T08:39:06.019Z,37.92
2023-03-16T08:41:39.048Z,37.37
2023-03-16T08:44:10.720Z,36.98
2023-03-16T08:46:37.719Z,36.79
2023-03-16T08:49:08.207Z,41.32
2023-03-16T08:51:37.199Z,41.49
2023-03-16T08:54:04.166Z,39.98
2023-03-16T08:56:31.023Z,39.02
2023-03-16T08:58:57.858Z,40.54
2023-03-16T09:01:32.800Z,42.04
2023-03-16T09:03:59.897Z,43.31
2023-03-16T09:06:27.120Z,46.62
2023-03-16T09:08:54.053Z,45.28
2023-03-16T09:11:20.808Z,50.42
2023-03-16T09:13:48.187Z,50.52
2023-03-16T09:16:17.493Z,51.82
2023-03-16T09:18:46.085Z,52.30
2023-03-16T09:21:12.997Z,54.38
2023-03-16T09:23:40.873Z,55.78
2023-03-16T09:26:07.968Z,56.61
2023-03-16T09:28:36.811Z,55.92
2023-03-16T09:31:04.375Z,56.02
2023-03-16T09:33:33.445Z,53.52
2023-03-16T09:36:03.278Z,57.56
2023-03-16T09:38:31.083Z,56.18
2023-03-16T09:41:06.848Z,55.25
2023-03-16T09:43:58.211Z,53.66
2023-03-16T09:46:30.034Z,52.62
2023-03-16T09:48:59.235Z,52.27
2023-03-16T09:51:43.225Z,52.55
2023-03-16T09:54:26.183Z,51.88
2023-03-16T09:56:55.546Z,51.88
2023-03-16T09:59:24.812Z,50.77
2023-03-16T10:02:30.915Z,52.09
2023-03-16T10:05:08.819Z,50.29
2023-03-16T10:07:53.751Z,51.91
2023-03-16T10:10:43.989Z,54.65
2023-03-16T10:13:27.661Z,53.69
2023-03-16T10:16:03.023Z,54.55
2023-03-16T10:18:41.119Z,55.81
2023-03-16T10:21:15.293Z,54.01
2023-03-16T10:23:45.278Z,54.66
2023-03-16T10:26:20.930Z,53.46
2023-03-16T10:28:49.154Z,52.80
2023-03-16T10:31:22.547Z,50.72
2023-03-16T10:33:56.714Z,50.71
2023-03-16T10:36:31.687Z,52.12
2023-03-16T10:39:04.297Z,50.32
2023-03-16T10:41:35.488Z,49.96
2023-03-16T10:44:10.538Z,50.12
2023-03-16T10:46:41.851Z,50.03
2023-03-16T10:49:23.268Z,49.98
2023-03-16T10:51:50.935Z,48.83
2023-03-16T10:54:29.842Z,45.68
2023-03-16T10:56:57.755Z,48.00
2023-03-16T10:59:32.104Z,45.06
2023-03-16T11:02:01.634Z,45.27
2023-03-16T11:04:32.789Z,43.68
2023-03-16T11:07:02.307Z,43.74
2023-03-16T11:09:37.857Z,42.58
2023-03-16T11:12:15.201Z,42.57
2023-03-16T11:14:44.847Z,44.10
2023-03-16T11:17:18.897Z,40.20
2023-03-16T11:19:53.122Z,38.27
2023-03-16T11:22:23.435Z,41.83
2023-03-16T11:25:03.120Z,41.81
2023-03-16T11:27:42.174Z,43.08
2023-03-16T11:30:19.572Z,42.55
2023-03-16T11:32:50.704Z,41.93
2023-03-16T11:35:22.415Z,41.47
2023-03-16T11:38:13.502Z,42.29
2023-03-16T11:40:57.316Z,43.99
2023-03-16T11:43:47.733Z,43.91
2023-03-16T11:46:20.794Z,42.25
2023-03-16T11:49:07.026Z,39.70
2023-03-16T11:51:51.380Z,40.26
2023-03-16T11:54:40.269Z,39.77
2023-03-16T11:57:31.531Z,42.15
2023-03-16T12:00:13.702Z,43.99
2023-03-16T12:02:59.768Z,43.31
2023-03-16T12:06:13.493Z,43.30
2023-03-16T12:09:13.911Z,41.68
2023-03-16T12:11:54.605Z,43.32
2023-03-16T12:14:31.477Z,42.68
2023-03-16T12:17:08.318Z,44.28
2023-03-16T12:19:45.709Z,44.25
2023-03-16T12:22:21.183Z,43.59
2023-03-16T12:25:03.497Z,44.55
2023-03-16T12:27:36.062Z,44.00
2023-03-16T12:30:27.081Z,43.58
2023-03-16T12:33:05.281Z,42.78
2023-03-16T12:35:45.011Z,40.88
2023-03-16T12:38:36.557Z,41.85
2023-03-16T12:41:24.949Z,40.69
2023-03-16T12:44:09.537Z,40.82
2023-03-16T12:46:52.264Z,40.61
2023-03-16T12:49:21.447Z,41.37
2023-03-16T12:52:00.724Z,41.67
2023-03-16T12:54:28.797Z,39.12
2023-03-16T12:57:04.219Z,40.30
2023-03-16T12:59:41.218Z,41.87
2023-03-16T13:02:16.758Z,41.48
2023-03-16T13:04:51.696Z,41.54
2023-03-16T13:07:24.002Z,42.59
2023-03-16T13:10:00.480Z,39.90
2023-03-16T13:12:30.494Z,40.00
2023-03-16T13:14:57.432Z,40.46
2023-03-16T13:17:30.646Z,39.47
2023-03-16T13:20:03.631Z,40.50
2023-03-16T13:22:42.641Z,38.59
2023-03-16T13:25:17.794Z,40.33
2023-03-16T13:27:49.625Z,40.72
2023-03-16T13:30:22.314Z,43.35
2023-03-16T13:32:54.291Z,40.09
2023-03-16T13:35:26.934Z,39.70
2023-03-16T13:38:03.945Z,38.64
2023-03-16T13:40:32.193Z,41.57
2023-03-16T13:43:01.477Z,42.45
2023-03-16T13:45:37.003Z,42.15
2023-03-16T13:48:05.886Z,41.68
2023-03-16T13:50:33.627Z,42.57
2023-03-16T13:53:05.551Z,42.33
2023-03-16T13:55:35.988Z,41.40
2023-03-16T13:58:04.452Z,43.13
2023-03-16T14:00:36.175Z,43.48
2023-03-16T14:03:15.933Z,43.01
2023-03-16T14:05:44.581Z,42.00
2023-03-16T14:08:21.350Z,42.73
2023-03-16T14:10:49.853Z,42.55
2023-03-16T14:13:34.090Z,41.77
2023-03-16T14:16:06.538Z,40.80
2023-03-16T14:18:40.900Z,41.12
2023-03-16T14:21:14.046Z,40.86
2023-03-16T14:23:45.581Z,41.10
2023-03-16T14:26:15.311Z,41.05
2023-03-16T14:28:56.488Z,41.69
2023-03-16T14:31:34.667Z,40.32
2023-03-16T14:34:19.908Z,42.04
2023-03-16T14:36:47.432Z,40.48
2023-03-16T14:39:19.644Z,41.68
2023-03-16T14:41:54.791Z,41.85
2023-03-16T14:44:26.787Z,40.69
2023-03-16T14:46:55.635Z,41.30
2023-03-16T14:49:29.640Z,40.55
2023-03-16T14:52:02.486Z,41.36
2023-03-16T14:54:30.096Z,40.92
2023-03-16T14:57:05.456Z,41.54
2023-03-16T14:59:33.012Z,41.25
2023-03-16T15:02:02.930Z,40.25
2023-03-16T15:04:38.048Z,40.79
2023-03-16T15:07:23.090Z,40.98
2023-03-16T15:09:52.457Z,41.30
2023-03-16T15:12:23.038Z,41.95
2023-03-16T15:14:52.532Z,40.39
2023-03-16T15:17:22.078Z,40.79
2023-03-16T15:19:59.678Z,41.78
2023-03-16T15:22:39.035Z,42.43
2023-03-16T15:25:28.696Z,42.36
2023-03-16T15:28:01.285Z,41.72
2023-03-16T15:30:29.662Z,42.44
2023-03-16T15:32:56.889Z,41.97
2023-03-16T15:35:46.585Z,42.02
2023-03-16T15:38:21.113Z,41.77
2023-03-16T15:40:55.158Z,41.03
2023-03-16T15:43:27.955Z,42.75
2023-03-16T15:45:56.428Z,42.57
2023-03-16T15:48:23.476Z,42.97
2023-03-16T15:50:59.294Z,42.39
2023-03-16T15:53:34.094Z,42.96
2023-03-16T15:56:08.055Z,43.62
2023-03-16T15:58:40.149Z,42.86
2023-03-16T16:01:20.805Z,43.05
2023-03-16T16:03:51.578Z,43.96
2023-03-16T16:06:30.824Z,44.83
2023-03-16T16:09:05.698Z,44.18
2023-03-16T16:11:35.642Z,45.07
2023-03-16T16:14:03.410Z,44.65
2023-03-16T16:16:32.594Z,44.76
2023-03-16T16:19:02.077Z,45.13
2023-03-16T16:21:30.590Z,45.08
2023-03-16T16:23:58.648Z,46.02
2023-03-16T16:26:54.232Z,47.93
2023-03-16T16:29:25.899Z,48.02
2023-03-16T16:31:55.652Z,48.70
2023-03-16T16:34:27.493Z,48.20
2023-03-16T16:36:58.650Z,48.79
2023-03-16T16:39:27.998Z,47.48
2023-03-16T16:41:57.655Z,49.28
2023-03-16T16:44:33.870Z,49.15
2023-03-16T16:47:02.614Z,49.29
2023-03-16T16:49:31.161Z,50.32
2023-03-16T16:51:59.728Z,49.89
2023-03-16T16:54:30.634Z,50.22
2023-03-16T16:57:01.487Z,51.38
2023-03-16T16:59:33.114Z,52.00
2023-03-16T17:02:02.382Z,52.64
2023-03-16T17:04:30.859Z,53.19
2023-03-16T17:07:00.768Z,52.88
2023-03-16T17:09:30.039Z,53.03
2023-03-16T17:12:00.758Z,52.95
2023-03-16T17:14:31.795Z,53.26
2023-03-16T17:17:05.394Z,53.26
2023-03-16T17:19:32.992Z,53.18
2023-03-16T17:22:23.169Z,53.80
2023-03-16T17:24:51.077Z,53.26
2023-03-16T17:27:26.145Z,53.11
2023-03-16T17:29:54.503Z,53.58
2023-03-16T17:32:22.611Z,53.95
2023-03-16T17:34:54.246Z,54.06
2023-03-16T17:37:23.476Z,53.92
2023-03-16T17:39:50.319Z,53.54
2023-03-16T17:42:20.312Z,54.05
2023-03-16T17:44:50.322Z,53.20
2023-03-16T17:47:24.980Z,53.68
2023-03-16T17:49:52.974Z,53.61
2023-03-16T17:52:29.164Z,53.72
2023-03-16T17:54:56.047Z,54.03
2023-03-16T17:57:29.007Z,53.47
2023-03-16T17:59:58.422Z,53.44
2023-03-16T18:02:44.408Z,53.27
2023-03-16T18:05:19.102Z,53.19
2023-03-16T18:07:49.008Z,53.92
2023-03-16T18:10:19.452Z,53.47
2023-03-16T18:12:53.079Z,53.90
2023-03-16T18:15:24.966Z,53.76
2023-03-16T18:17:54.843Z,53.91
2023-03-16T18:20:29.472Z,54.03
2023-03-16T18:22:59.357Z,54.73
2023-03-16T18:25:38.437Z,54.78
2023-03-16T18:28:07.249Z,54.89
2023-03-16T18:30:41.128Z,54.18
2023-03-16T18:33:26.445Z,55.44
2023-03-16T18:35:57.611Z,55.46
2023-03-16T18:41:33.716Z,55.19
2023-03-16T18:44:15.664Z,54.93
2023-03-16T18:46:43.087Z,55.11
2023-03-16T18:49:18.673Z,54.83
2023-03-16T18:51:51.270Z,54.20
2023-03-16T18:54:28.069Z,54.48
2023-03-16T18:56:59.903Z,54.70
2023-03-16T18:59:27.756Z,54.71
2023-03-16T19:01:57.866Z,54.97
2023-03-16T19:04:30.968Z,55.41
2023-03-16T19:07:01.383Z,55.13
2023-03-16T19:09:32.212Z,55.42
2023-03-16T19:11:59.354Z,55.15
2023-03-16T19:14:30.732Z,55.37
2023-03-16T19:16:59.327Z,54.84
2023-03-16T19:19:26.505Z,55.30
2023-03-16T19:21:58.336Z,54.98
2023-03-16T19:24:31.469Z,54.47
2023-03-16T19:26:59.784Z,54.87
2023-03-16T19:29:32.358Z,55.03
2023-03-16T19:31:59.987Z,55.06
2023-03-16T19:34:27.959Z,54.90
2023-03-16T19:36:57.944Z,55.19
2023-03-16T19:39:28.605Z,55.19
2023-03-16T19:41:59.231Z,55.25
2023-03-16T19:44:29.863Z,55.30
2023-03-16T19:46:56.944Z,55.24
2023-03-16T19:49:38.676Z,55.16
2023-03-16T19:52:11.699Z,55.02
2023-03-16T19:54:38.673Z,54.78
2023-03-16T19:57:14.432Z,54.71
2023-03-16T19:59:54.061Z,54.48
2023-03-16T20:02:28.906Z,54.25
2023-03-16T20:04:56.606Z,54.08
2023-03-16T20:07:23.478Z,54.34
2023-03-16T20:09:52.403Z,54.31
2023-03-16T20:12:26.031Z,54.89
2023-03-16T20:14:55.375Z,54.93
2023-03-16T20:17:28.879Z,55.37
2023-03-16T20:19:57.145Z,55.40
2023-03-16T20:22:26.848Z,54.96
2023-03-16T20:24:54.710Z,55.65
2023-03-16T20:27:24.349Z,55.67
2023-03-16T20:29:51.631Z,55.83
2023-03-16T20:32:21.956Z,55.90
2023-03-16T20:34:51.777Z,55.79
2023-03-16T20:37:23.803Z,55.63
2023-03-16T20:39:51.664Z,55.89
2023-03-16T20:42:25.035Z,55.11
2023-03-16T20:44:52.267Z,55.35
2023-03-16T20:47:22.767Z,56.15
2023-03-16T20:49:50.852Z,55.58
2023-03-16T20:52:21.201Z,55.55
2023-03-16T20:54:48.521Z,55.89
2023-03-16T20:57:19.447Z,55.52
2023-03-16T20:59:50.017Z,55.12
2023-03-16T21:02:26.953Z,55.56
2023-03-16T21:04:54.627Z,55.41
2023-03-16T21:07:31.982Z,55.07
2023-03-16T21:09:58.955Z,55.60
2023-03-16T21:12:30.089Z,54.63
2023-03-16T21:15:00.986Z,55.27
2023-03-16T21:17:35.100Z,55.49
2023-03-16T21:20:02.277Z,54.79
2023-03-16T21:22:31.979Z,55.90
2023-03-16T21:24:59.183Z,56.04
2023-03-16T21:27:29.863Z,55.67
2023-03-16T21:30:04.949Z,55.49
2023-03-16T21:32:36.867Z,54.95
2023-03-16T21:35:04.622Z,54.87
2023-03-16T21:37:34.128Z,54.55
2023-03-16T21:40:01.552Z,54.52
2023-03-16T21:42:30.753Z,54.70
2023-03-16T21:45:00.745Z,54.46
2023-03-16T21:47:30.104Z,55.05
2023-03-16T21:49:57.400Z,54.70
2023-03-16T21:52:29.222Z,55.00
2023-03-16T21:54:58.874Z,55.28
2023-03-16T21:57:26.039Z,54.90
2023-03-16T21:59:53.050Z,55.33
2023-03-16T22:02:24.475Z,55.55
2023-03-16T22:04:56.911Z,55.23
2023-03-16T22:07:34.820Z,56.08
2023-03-16T22:10:01.689Z,57.32
2023-03-16T22:12:28.621Z,58.01
2023-03-16T22:14:55.745Z,57.36
2023-03-16T22:17:28.961Z,57.28
2023-03-16T22:19:57.185Z,59.37
2023-03-16T22:22:28.812Z,57.00
2023-03-16T22:24:55.780Z,56.23
2023-03-16T22:27:24.164Z,56.98
2023-03-16T22:29:52.044Z,56.84
2023-03-16T22:32:22.424Z,57.16
2023-03-16T22:34:53.710Z,57.64
2023-03-16T22:37:29.864Z,58.58
2023-03-16T22:39:57.732Z,58.83
2023-03-16T22:42:34.395Z,59.81
2023-03-16T22:45:03.174Z,58.76
2023-03-16T22:47:32.424Z,59.72
2023-03-16T22:49:59.853Z,61.08
2023-03-16T22:52:37.139Z,61.40
2023-03-16T22:55:06.554Z,59.75
2023-03-16T22:57:33.835Z,58.55
2023-03-16T23:00:04.864Z,58.99
2023-03-16T23:02:33.392Z,57.82
2023-03-16T23:05:00.297Z,58.61
2023-03-16T23:07:28.559Z,59.27
2023-03-16T23:09:57.404Z,58.96
2023-03-16T23:12:26.310Z,59.31
2023-03-16T23:14:53.144Z,59.36
2023-03-16T23:17:21.941Z,59.14
2023-03-16T23:19:51.526Z,59.36
2023-03-16T23:22:18.671Z,59.03
2023-03-16T23:24:47.100Z,59.15
2023-03-16T23:27:20.544Z,59.60
2023-03-16T23:29:48.141Z,59.53
2023-03-16T23:32:16.910Z,59.58
2023-03-16T23:34:44.204Z,59.34
2023-03-16T23:37:12.778Z,58.71
2023-03-16T23:39:39.819Z,58.12
2023-03-16T23:42:11.261Z,58.78
2023-03-16T23:44:38.242Z,58.09
2023-03-16T23:47:05.989Z,58.38
2023-03-16T23:49:40.250Z,58.39
2023-03-16T23:52:07.141Z,59.81
2023-03-16T23:54:37.159Z,60.12
2023-03-16T23:57:04.210Z,60.73
2023-03-16T23:59:32.401Z,61.05
